Time;durP1;ratioP1;P1;durP2;ratioP2;P2;SDS_P1;SDS_P2;PMS_P1;PMS_P2;Temp;Humidity;BMP_temperature;BMP_pressure;BME280_temperature;BME280_humidity;BME280_pressure;Samples;Min_cycle;Max_cycle;Signal;HPM_P1;HPM_P2
2023/05/09 00:01:48;;;;;;;51.53;31.02;;;15.20;99.90;;;;;;5111671;27;20066;-83
2023/05/09 00:04:15;;;;;;;53.20;30.52;;;15.20;99.90;;;;;;5094034;27;20040;-83
2023/05/09 00:06:41;;;;;;;48.35;28.33;;;15.20;99.90;;;;;;5111489;27;20103;-83
2023/05/09 00:09:06;;;;;;;49.97;28.63;;;15.70;99.90;;;;;;5108852;27;20158;-84
2023/05/09 00:11:32;;;;;;;49.33;28.13;;;15.20;99.90;;;;;;5110467;27;20162;-83
2023/05/09 00:13:58;;;;;;;48.92;27.88;;;15.10;99.90;;;;;;5109349;27;21240;-83
2023/05/09 00:16:23;;;;;;;49.35;27.85;;;15.20;99.90;;;;;;5112545;27;20669;-83
2023/05/09 00:18:49;;;;;;;48.35;26.55;;;15.20;99.90;;;;;;5111481;27;20039;-83
2023/05/09 00:21:15;;;;;;;48.55;26.50;;;15.20;99.90;;;;;;5112999;27;20122;-83
2023/05/09 00:23:41;;;;;;;45.97;28.08;;;15.10;99.90;;;;;;5111133;27;20047;-83
2023/05/09 00:26:07;;;;;;;50.28;27.00;;;15.10;99.90;;;;;;5130247;27;20039;-83
2023/05/09 00:28:33;;;;;;;46.60;26.70;;;15.20;99.90;;;;;;5109915;27;20055;-83
2023/05/09 00:30:58;;;;;;;46.42;27.27;;;15.20;99.90;;;;;;5130439;27;20050;-83
2023/05/09 00:33:27;;;;;;;46.20;27.42;;;15.00;99.90;;;;;;5111955;27;20090;-82
2023/05/09 00:35:53;;;;;;;50.97;28.08;;;15.10;99.90;;;;;;5111961;27;20058;-83
2023/05/09 00:38:21;;;;;;;51.70;28.05;;;15.40;99.90;;;;;;5088290;27;20100;-82
2023/05/09 00:40:46;;;;;;;43.47;25.63;;;15.20;99.90;;;;;;5110318;27;20489;-83
2023/05/09 00:43:12;;;;;;;45.88;26.92;;;15.40;99.90;;;;;;5111045;27;20100;-83
2023/05/09 00:45:38;;;;;;;44.58;25.55;;;15.10;99.90;;;;;;5094844;27;20053;-83
2023/05/09 00:48:04;;;;;;;43.10;26.15;;;15.10;99.90;;;;;;5094834;27;20047;-84
2023/05/09 00:50:30;;;;;;;47.53;25.73;;;15.10;99.90;;;;;;5089237;28;20032;-84
2023/05/09 00:52:56;;;;;;;38.88;24.48;;;15.10;99.90;;;;;;5096268;27;20074;-83
2023/05/09 00:55:22;;;;;;;40.95;24.85;;;15.20;99.90;;;;;;5111631;27;20074;-83
2023/05/09 00:57:47;;;;;;;46.97;26.42;;;15.20;99.90;;;;;;5112941;27;20047;-83
2023/05/09 01:00:14;;;;;;;46.92;26.63;;;15.10;99.90;;;;;;5092874;27;20050;-84
2023/05/09 01:02:46;;;;;;;44.90;26.98;;;15.10;99.90;;;;;;5111617;27;20055;-84
2023/05/09 01:05:13;;;;;;;44.63;26.17;;;15.00;99.90;;;;;;5124495;27;20047;-83
2023/05/09 01:08:04;;;;;;;47.55;26.35;;;15.00;99.90;;;;;;5105781;27;20040;-83
2023/05/09 01:10:33;;;;;;;46.70;26.30;;;14.90;99.90;;;;;;5106062;27;20071;-84
2023/05/09 01:13:13;;;;;;;38.95;23.65;;;14.90;99.90;;;;;;5106071;27;20043;-83
2023/05/09 01:15:58;;;;;;;43.88;25.50;;;14.90;99.90;;;;;;5094758;28;20114;-82
2023/05/09 01:18:30;;;;;;;41.28;24.88;;;14.80;99.90;;;;;;5109052;27;20043;-83
2023/05/09 01:21:06;;;;;;;41.63;25.48;;;14.80;99.90;;;;;;5110681;27;20047;-84
2023/05/09 01:23:44;;;;;;;43.78;25.48;;;14.80;99.90;;;;;;5092494;27;20139;-83
2023/05/09 01:26:35;;;;;;;43.25;25.98;;;14.90;99.90;;;;;;5091417;28;20084;-83
2023/05/09 01:29:20;;;;;;;40.60;24.48;;;14.90;99.90;;;;;;5096851;28;20066;-83
2023/05/09 01:31:48;;;;;;;46.53;26.15;;;14.90;99.90;;;;;;5101774;27;20097;-83
2023/05/09 01:34:15;;;;;;;47.78;26.98;;;14.90;99.90;;;;;;5128020;27;20884;-84
2023/05/09 01:36:42;;;;;;;46.20;27.08;;;15.20;99.90;;;;;;5112782;27;20408;-83
2023/05/09 01:39:12;;;;;;;51.55;27.80;;;15.00;99.90;;;;;;5108946;27;20450;-83
2023/05/09 01:41:38;;;;;;;46.25;26.70;;;14.90;99.90;;;;;;5123141;27;20467;-84
2023/05/09 01:44:07;;;;;;;48.53;27.23;;;15.00;99.90;;;;;;5100317;28;20043;-83
2023/05/09 01:46:34;;;;;;;45.53;26.50;;;14.90;99.90;;;;;;5103608;27;20167;-83
2023/05/09 01:49:01;;;;;;;51.03;28.17;;;14.80;99.90;;;;;;5124538;27;20058;-83
2023/05/09 01:51:28;;;;;;;49.20;27.38;;;14.90;99.90;;;;;;5110809;27;20540;-83
2023/05/09 01:53:55;;;;;;;49.40;28.80;;;15.20;99.90;;;;;;5091417;27;20043;-83
2023/05/09 01:56:22;;;;;;;49.22;28.10;;;14.90;99.90;;;;;;5112087;27;20043;-83
2023/05/09 01:58:49;;;;;;;50.67;28.17;;;14.90;99.90;;;;;;5109220;27;20121;-83
2023/05/09 02:01:17;;;;;;;51.50;29.75;;;14.90;99.90;;;;;;5076614;28;20035;-83
2023/05/09 02:03:46;;;;;;;51.08;28.77;;;14.90;99.90;;;;;;5102456;27;20072;-83
2023/05/09 02:06:12;;;;;;;49.38;27.40;;;14.90;99.90;;;;;;5127805;27;20477;-83
2023/05/09 02:08:38;;;;;;;52.92;30.30;;;14.90;99.90;;;;;;5109329;27;20039;-83
2023/05/09 02:11:04;;;;;;;53.60;30.10;;;15.10;99.90;;;;;;5110241;27;20043;-83
2023/05/09 02:13:30;;;;;;;53.30;28.25;;;14.90;99.90;;;;;;5103771;28;20050;-83
2023/05/09 02:15:56;;;;;;;50.90;29.05;;;14.90;99.90;;;;;;5107436;27;20393;-83
2023/05/09 02:18:22;;;;;;;52.13;29.95;;;15.40;99.90;;;;;;5109998;27;20350;-83
2023/05/09 02:20:47;;;;;;;57.00;30.55;;;15.00;99.90;;;;;;5109270;27;20047;-83
2023/05/09 02:23:13;;;;;;;51.65;29.17;;;14.90;99.90;;;;;;5109056;27;20137;-83
2023/05/09 02:25:39;;;;;;;50.33;27.50;;;14.90;99.90;;;;;;5111307;27;20206;-83
2023/05/09 02:28:07;;;;;;;57.08;31.02;;;14.90;99.90;;;;;;5108707;27;20044;-83
2023/05/09 02:30:38;;;;;;;54.40;30.27;;;14.90;99.90;;;;;;5093579;27;20044;-83
2023/05/09 02:33:07;;;;;;;52.05;29.15;;;14.90;99.90;;;;;;5109265;27;20046;-83
2023/05/09 02:35:34;;;;;;;54.97;30.83;;;14.90;99.90;;;;;;5110272;27;20042;-83
2023/05/09 02:38:00;;;;;;;53.70;29.15;;;15.00;99.90;;;;;;5091264;27;20047;-83
2023/05/09 02:40:28;;;;;;;52.35;30.17;;;15.00;99.90;;;;;;5093487;27;20043;-83
2023/05/09 02:42:54;;;;;;;58.92;31.17;;;15.00;99.90;;;;;;5108727;27;20047;-83
2023/05/09 02:45:20;;;;;;;50.55;29.80;;;15.00;99.90;;;;;;5110910;27;20031;-83
2023/05/09 02:47:45;;;;;;;56.63;30.67;;;15.20;99.90;;;;;;5086345;27;20054;-83
2023/05/09 02:50:11;;;;;;;50.33;28.17;;;15.00;99.90;;;;;;5108436;27;20076;-84
2023/05/09 02:52:37;;;;;;;50.67;29.70;;;15.00;99.90;;;;;;5128008;27;20039;-83
2023/05/09 02:55:03;;;;;;;49.80;27.95;;;15.10;99.90;;;;;;5106423;28;20039;-84
2023/05/09 02:57:29;;;;;;;47.35;27.75;;;15.00;99.90;;;;;;5102375;28;20036;-83
2023/05/09 02:59:55;;;;;;;52.92;29.92;;;15.00;99.90;;;;;;5118510;27;20719;-84
2023/05/09 03:02:22;;;;;;;57.15;31.58;;;15.00;99.90;;;;;;5100178;27;20366;-83
2023/05/09 03:04:48;;;;;;;54.72;31.15;;;15.00;99.90;;;;;;5111614;27;20034;-83
2023/05/09 03:07:13;;;;;;;56.92;31.35;;;15.00;99.90;;;;;;5108429;27;20549;-83
2023/05/09 03:09:39;;;;;;;52.72;30.48;;;15.00;99.90;;;;;;5108068;28;20057;-83
2023/05/09 03:12:05;;;;;;;54.25;29.77;;;15.00;99.90;;;;;;5108784;28;20043;-83
2023/05/09 03:14:31;;;;;;;63.38;33.83;;;15.20;99.90;;;;;;5089580;28;20122;-83
2023/05/09 03:16:56;;;;;;;63.83;35.63;;;15.00;99.90;;;;;;5108668;28;20062;-83
2023/05/09 03:19:22;;;;;;;66.88;35.13;;;15.10;99.90;;;;;;5105047;28;20050;-83
2023/05/09 03:21:47;;;;;;;65.22;34.50;;;15.00;99.90;;;;;;5102384;28;20044;-83
2023/05/09 03:24:13;;;;;;;64.40;34.60;;;15.10;99.90;;;;;;5090563;27;20122;-84
2023/05/09 03:26:38;;;;;;;69.60;35.58;;;15.10;99.90;;;;;;5109907;28;20049;-84
2023/05/09 03:29:04;;;;;;;72.60;37.65;;;15.00;99.90;;;;;;5107417;27;20082;-83
2023/05/09 03:31:30;;;;;;;64.35;33.88;;;15.00;99.90;;;;;;5111168;27;20126;-83
2023/05/09 03:33:56;;;;;;;68.22;36.22;;;15.00;99.90;;;;;;5113777;27;20123;-83
2023/05/09 03:36:22;;;;;;;69.18;36.85;;;15.20;99.90;;;;;;5132050;27;20199;-84
2023/05/09 03:38:47;;;;;;;71.85;35.65;;;15.00;99.90;;;;;;5110977;27;20046;-83
2023/05/09 03:41:15;;;;;;;73.43;37.08;;;15.00;99.90;;;;;;5111430;27;20038;-83
2023/05/09 03:43:41;;;;;;;72.68;37.40;;;15.10;99.90;;;;;;5114040;27;20087;-84
2023/05/09 03:46:07;;;;;;;69.75;36.58;;;15.10;99.90;;;;;;5109118;27;20055;-83
2023/05/09 03:48:32;;;;;;;68.60;34.83;;;15.10;99.90;;;;;;5092289;28;20513;-84
2023/05/09 03:50:59;;;;;;;61.40;36.08;;;15.10;99.90;;;;;;5108605;28;20131;-83
2023/05/09 03:53:25;;;;;;;56.92;33.17;;;15.00;99.90;;;;;;5103451;28;20521;-83
2023/05/09 03:55:51;;;;;;;62.78;35.10;;;15.10;99.90;;;;;;5103200;28;20051;-83
2023/05/09 03:58:18;;;;;;;67.03;36.83;;;15.00;99.90;;;;;;5108785;28;20193;-83
2023/05/09 04:00:44;;;;;;;64.50;36.72;;;15.10;99.90;;;;;;5108478;28;20039;-82
2023/05/09 04:03:10;;;;;;;60.90;35.08;;;15.10;99.90;;;;;;5107616;28;20043;-83
2023/05/09 04:05:39;;;;;;;61.10;34.47;;;15.10;99.90;;;;;;5109899;27;20043;-83
2023/05/09 04:08:05;;;;;;;56.05;33.67;;;15.10;99.90;;;;;;5109061;28;20047;-83
2023/05/09 04:10:31;;;;;;;55.50;34.10;;;15.10;99.90;;;;;;5110641;28;20036;-83
2023/05/09 04:12:58;;;;;;;56.25;34.13;;;15.10;99.90;;;;;;5108843;28;20449;-83
2023/05/09 04:15:24;;;;;;;55.30;33.88;;;15.10;99.90;;;;;;5095761;28;20072;-83
2023/05/09 04:17:50;;;;;;;49.38;33.08;;;15.10;99.90;;;;;;5108233;28;20039;-83
2023/05/09 04:20:15;;;;;;;50.33;32.33;;;15.30;99.90;;;;;;5091258;28;20042;-83
2023/05/09 04:22:41;;;;;;;51.53;32.28;;;15.20;99.90;;;;;;5109097;28;20040;-83
2023/05/09 04:25:11;;;;;;;50.03;33.20;;;15.10;99.90;;;;;;5108117;28;20561;-82
2023/05/09 04:27:36;;;;;;;50.70;32.30;;;15.10;99.90;;;;;;5110389;28;20066;-83
2023/05/09 04:30:02;;;;;;;48.90;30.75;;;15.20;99.90;;;;;;5091109;28;20873;-83
2023/05/09 04:32:28;;;;;;;52.30;29.70;;;15.10;99.90;;;;;;5103569;28;20043;-83
2023/05/09 04:34:54;;;;;;;47.03;31.85;;;15.30;99.90;;;;;;5107769;28;20505;-83
2023/05/09 04:37:19;;;;;;;41.70;28.77;;;15.20;99.90;;;;;;5109301;28;20055;-83
2023/05/09 04:39:45;;;;;;;44.40;30.42;;;15.20;99.90;;;;;;5109020;28;20523;-83
2023/05/09 04:42:11;;;;;;;50.30;32.08;;;15.20;99.90;;;;;;5106530;28;20032;-83
2023/05/09 04:44:36;;;;;;;41.15;29.38;;;15.20;99.90;;;;;;5108563;28;20051;-83
2023/05/09 04:47:02;;;;;;;45.55;30.35;;;15.20;99.90;;;;;;5106642;28;20128;-83
2023/05/09 04:49:28;;;;;;;42.10;29.85;;;15.40;99.90;;;;;;5108687;28;20056;-83
2023/05/09 04:51:53;;;;;;;40.67;28.83;;;15.30;99.90;;;;;;5110110;28;20047;-83
2023/05/09 04:54:20;;;;;;;39.25;28.10;;;15.20;99.90;;;;;;5105063;28;20146;-83
2023/05/09 04:56:45;;;;;;;35.13;27.20;;;15.10;99.90;;;;;;5110928;28;20036;-83
2023/05/09 04:59:11;;;;;;;36.15;27.05;;;15.30;99.90;;;;;;5109880;28;20058;-83
2023/05/09 05:01:37;;;;;;;38.05;28.95;;;15.30;99.90;;;;;;5108559;28;20511;-84
2023/05/09 05:04:02;;;;;;;42.20;28.70;;;15.30;99.90;;;;;;5101538;28;20343;-83
2023/05/09 05:06:28;;;;;;;36.13;26.50;;;15.30;99.90;;;;;;5108231;28;20039;-84
2023/05/09 05:08:56;;;;;;;37.85;28.55;;;15.30;99.90;;;;;;5079751;28;20123;-83
2023/05/09 05:11:21;;;;;;;40.47;29.92;;;15.40;99.90;;;;;;5105299;28;20036;-83
2023/05/09 05:13:47;;;;;;;45.22;31.02;;;15.40;99.90;;;;;;5079150;28;20036;-82
2023/05/09 05:16:13;;;;;;;42.88;30.13;;;15.40;99.90;;;;;;5107345;28;20119;-82
2023/05/09 05:18:38;;;;;;;45.72;29.83;;;15.40;99.90;;;;;;5108752;28;20374;-83
2023/05/09 05:21:04;;;;;;;35.30;25.48;;;15.30;99.90;;;;;;5105648;28;20187;-82
2023/05/09 05:23:29;;;;;;;35.90;27.33;;;15.40;99.90;;;;;;5108684;28;20098;-82
2023/05/09 05:25:55;;;;;;;36.95;25.83;;;15.40;99.90;;;;;;5107426;28;20051;-81
2023/05/09 05:28:21;;;;;;;30.95;25.02;;;15.40;99.90;;;;;;5106709;28;20092;-82
2023/05/09 05:30:46;;;;;;;28.30;23.27;;;15.40;99.90;;;;;;5105383;27;20511;-83
2023/05/09 05:33:12;;;;;;;27.63;22.75;;;15.40;99.90;;;;;;5099292;28;20044;-83
2023/05/09 05:35:37;;;;;;;27.60;22.33;;;15.30;99.90;;;;;;5109518;28;20031;-83
2023/05/09 05:38:03;;;;;;;25.98;22.15;;;15.30;99.90;;;;;;5107453;28;20096;-83
2023/05/09 05:40:29;;;;;;;27.27;21.60;;;15.40;99.90;;;;;;5109826;28;20092;-83
2023/05/09 05:42:54;;;;;;;24.80;20.70;;;15.20;99.90;;;;;;5108596;28;20040;-83
2023/05/09 05:45:20;;;;;;;25.33;21.98;;;15.30;99.90;;;;;;5088214;28;20677;-83
2023/05/09 05:47:46;;;;;;;23.13;20.58;;;15.20;99.90;;;;;;5106485;28;20039;-82
2023/05/09 05:50:12;;;;;;;24.05;20.92;;;15.20;99.90;;;;;;5106181;28;20039;-83
2023/05/09 05:52:38;;;;;;;22.23;19.08;;;15.20;99.90;;;;;;5098527;28;20414;-83
2023/05/09 05:55:04;;;;;;;23.48;19.25;;;15.10;99.90;;;;;;5108215;28;20040;-83
2023/05/09 05:57:30;;;;;;;21.35;17.80;;;15.20;99.90;;;;;;5109397;28;20042;-84
2023/05/09 05:59:56;;;;;;;21.35;19.08;;;15.50;99.90;;;;;;5107366;28;20044;-83
2023/05/09 06:02:21;;;;;;;22.23;18.95;;;15.20;99.90;;;;;;5077575;28;20044;-84
2023/05/09 06:04:47;;;;;;;21.73;18.60;;;15.10;99.90;;;;;;5091289;28;20028;-84
2023/05/09 06:07:13;;;;;;;22.35;18.50;;;15.30;99.90;;;;;;5094820;28;20043;-84
2023/05/09 06:09:38;;;;;;;24.17;18.92;;;15.60;99.90;;;;;;5105676;27;20093;-84
2023/05/09 06:12:05;;;;;;;23.58;18.85;;;15.30;99.90;;;;;;5087748;28;20044;-84
2023/05/09 06:14:31;;;;;;;21.30;17.75;;;15.30;99.90;;;;;;5069926;28;20703;-84
2023/05/09 06:16:57;;;;;;;22.42;18.63;;;15.80;99.90;;;;;;5105233;28;20051;-84
2023/05/09 06:19:23;;;;;;;21.52;18.77;;;15.40;99.90;;;;;;5107850;28;20116;-83
2023/05/09 06:21:49;;;;;;;22.25;19.05;;;15.50;99.90;;;;;;5090702;28;20036;-84
2023/05/09 06:24:15;;;;;;;24.25;19.48;;;15.50;99.90;;;;;;5089500;28;20044;-83
2023/05/09 06:26:43;;;;;;;24.60;19.25;;;15.50;99.90;;;;;;5087461;28;20049;-83
2023/05/09 06:29:09;;;;;;;27.17;20.20;;;15.60;99.90;;;;;;5090941;28;20039;-84
2023/05/09 06:31:37;;;;;;;26.63;19.95;;;15.60;99.90;;;;;;5090859;28;20130;-84
2023/05/09 06:34:03;;;;;;;27.65;20.10;;;15.70;99.90;;;;;;5106764;28;20050;-83
2023/05/09 06:36:29;;;;;;;24.85;19.92;;;15.70;99.90;;;;;;5104417;28;20133;-84
2023/05/09 06:38:55;;;;;;;28.23;20.38;;;15.70;99.90;;;;;;5105603;28;20043;-83
2023/05/09 06:41:21;;;;;;;25.52;20.38;;;15.80;99.90;;;;;;5104469;28;20043;-83
2023/05/09 06:43:46;;;;;;;31.40;23.25;;;15.80;99.90;;;;;;5085821;28;20024;-83
2023/05/09 06:46:12;;;;;;;31.63;22.48;;;16.20;99.90;;;;;;5105100;28;20085;-84
2023/05/09 06:48:38;;;;;;;31.30;23.10;;;16.00;99.90;;;;;;5104972;28;20051;-83
2023/05/09 06:51:03;;;;;;;31.55;23.33;;;16.00;99.90;;;;;;5105800;28;20047;-84
2023/05/09 06:53:29;;;;;;;33.25;23.75;;;16.30;99.90;;;;;;5105853;28;20586;-84
2023/05/09 06:55:55;;;;;;;36.80;24.65;;;16.00;99.90;;;;;;5108364;28;20492;-83
2023/05/09 06:58:20;;;;;;;35.50;24.88;;;16.00;99.90;;;;;;5107400;28;20096;-83
2023/05/09 07:00:46;;;;;;;41.45;27.20;;;16.00;99.90;;;;;;5106505;28;20086;-83
2023/05/09 07:03:12;;;;;;;39.45;27.40;;;16.00;99.90;;;;;;5088839;28;20088;-83
2023/05/09 07:05:38;;;;;;;42.47;27.50;;;16.00;99.90;;;;;;5106388;28;20435;-83
2023/05/09 07:08:03;;;;;;;41.78;27.98;;;15.90;99.90;;;;;;5106261;28;20040;-83
2023/05/09 07:10:29;;;;;;;41.05;27.25;;;16.10;99.90;;;;;;5108091;28;20089;-83
2023/05/09 07:12:57;;;;;;;40.33;27.08;;;16.10;99.90;;;;;;5089942;28;20530;-83
2023/05/09 07:15:23;;;;;;;39.83;27.30;;;16.10;99.90;;;;;;5106572;28;20467;-83
2023/05/09 07:17:49;;;;;;;37.33;26.80;;;16.00;99.90;;;;;;5105618;28;20062;-83
2023/05/09 07:20:14;;;;;;;34.33;25.10;;;16.40;99.90;;;;;;5090257;28;20386;-83
2023/05/09 07:22:40;;;;;;;33.50;24.63;;;16.10;99.90;;;;;;5107452;28;20077;-83
2023/05/09 07:25:07;;;;;;;32.78;24.88;;;16.10;99.90;;;;;;5089406;28;20055;-83
2023/05/09 07:27:33;;;;;;;34.40;25.38;;;16.20;99.90;;;;;;5108238;28;20039;-84
2023/05/09 07:29:58;;;;;;;36.92;26.65;;;16.20;99.90;;;;;;5088756;28;20078;-84
2023/05/09 07:32:26;;;;;;;35.80;25.67;;;16.20;99.90;;;;;;5088944;28;20444;-83
2023/05/09 07:34:53;;;;;;;38.33;26.30;;;16.30;99.90;;;;;;5089019;28;20414;-83
2023/05/09 07:37:19;;;;;;;36.28;26.42;;;16.50;99.90;;;;;;5107797;28;20044;-83
2023/05/09 07:39:46;;;;;;;38.28;25.52;;;16.40;99.90;;;;;;5089489;28;20127;-83
2023/05/09 07:42:12;;;;;;;37.35;26.48;;;16.50;99.90;;;;;;5103697;28;20054;-84
2023/05/09 07:44:38;;;;;;;37.55;26.85;;;16.60;99.90;;;;;;5106870;28;20044;-84
2023/05/09 07:47:04;;;;;;;39.22;27.83;;;16.70;99.90;;;;;;5106619;28;20062;-84
2023/05/09 07:49:30;;;;;;;37.92;27.02;;;16.80;99.90;;;;;;5107884;28;20036;-83
2023/05/09 07:51:56;;;;;;;36.38;25.75;;;16.90;99.90;;;;;;5105104;28;20039;-83
2023/05/09 07:54:22;;;;;;;36.47;26.10;;;17.10;99.90;;;;;;5106331;28;20103;-83
2023/05/09 07:56:48;;;;;;;34.33;25.90;;;17.20;99.90;;;;;;5106304;28;20358;-83
2023/05/09 07:59:13;;;;;;;40.47;26.13;;;17.30;99.90;;;;;;5104354;28;20089;-82
2023/05/09 08:01:39;;;;;;;39.35;26.40;;;17.40;99.90;;;;;;5105542;28;20131;-84
2023/05/09 08:04:05;;;;;;;38.20;27.23;;;17.40;99.90;;;;;;5105608;28;20036;-83
2023/05/09 08:06:31;;;;;;;46.85;26.58;;;17.40;99.90;;;;;;5106891;28;20193;-84
2023/05/09 08:08:58;;;;;;;39.65;27.20;;;17.70;99.90;;;;;;5103158;28;20099;-84
2023/05/09 08:11:23;;;;;;;43.40;28.42;;;17.50;99.90;;;;;;5104243;28;20100;-84
2023/05/09 08:13:49;;;;;;;40.20;25.95;;;17.50;99.90;;;;;;5105995;28;20135;-84
2023/05/09 08:16:16;;;;;;;42.38;27.77;;;17.50;99.90;;;;;;5110266;28;20051;-82
2023/05/09 08:18:44;;;;;;;45.30;29.30;;;17.40;99.90;;;;;;5111816;28;20047;-82
2023/05/09 08:21:10;;;;;;;42.90;27.50;;;17.40;99.90;;;;;;5110755;28;20039;-82
2023/05/09 08:23:37;;;;;;;43.67;27.83;;;17.50;99.90;;;;;;5108820;28;20116;-81
2023/05/09 08:26:02;;;;;;;45.28;27.92;;;17.60;99.90;;;;;;5111645;28;20505;-82
2023/05/09 08:28:28;;;;;;;40.58;26.75;;;17.60;99.90;;;;;;5110359;28;20055;-82
2023/05/09 08:30:55;;;;;;;40.50;25.00;;;17.70;99.90;;;;;;5109951;28;20039;-81
2023/05/09 08:33:21;;;;;;;43.20;27.88;;;17.80;99.90;;;;;;5110425;28;20183;-82
2023/05/09 08:35:50;;;;;;;42.08;27.90;;;18.00;99.90;;;;;;5109182;28;20116;-81
2023/05/09 08:38:16;;;;;;;41.92;27.60;;;17.80;99.90;;;;;;5106622;27;20347;-83
2023/05/09 08:40:42;;;;;;;40.97;26.85;;;17.60;99.90;;;;;;5103669;28;20035;-83
2023/05/09 08:43:07;;;;;;;43.03;26.25;;;17.70;99.90;;;;;;5108364;28;20069;-83
2023/05/09 08:45:47;;;;;;;38.40;26.67;;;17.80;99.90;;;;;;5109452;27;20500;-83
2023/05/09 08:48:16;;;;;;;39.88;26.00;;;18.00;99.90;;;;;;5095682;27;20055;-83
2023/05/09 08:50:43;;;;;;;42.97;26.95;;;18.10;99.90;;;;;;5130423;27;20035;-83
2023/05/09 08:53:09;;;;;;;37.22;25.38;;;18.20;99.90;;;;;;5108828;27;20055;-83
2023/05/09 08:55:35;;;;;;;38.80;25.02;;;18.20;99.90;;;;;;5111298;27;20050;-83
2023/05/09 08:58:03;;;;;;;30.92;23.50;;;18.20;99.90;;;;;;5111217;27;20121;-83
2023/05/09 09:00:30;;;;;;;35.15;24.13;;;18.10;99.90;;;;;;5113317;27;20160;-83
2023/05/09 09:02:59;;;;;;;32.65;22.92;;;18.20;99.90;;;;;;5095684;27;20600;-83
2023/05/09 09:05:27;;;;;;;31.83;22.52;;;18.20;99.90;;;;;;5096071;27;20047;-82
2023/05/09 09:07:53;;;;;;;29.42;21.85;;;18.20;99.90;;;;;;5109770;27;20161;-83
2023/05/09 09:10:24;;;;;;;28.27;21.42;;;18.30;99.90;;;;;;5094856;27;20993;-82
2023/05/09 09:12:52;;;;;;;30.13;21.27;;;18.40;99.90;;;;;;5129425;27;20035;-83
2023/05/09 09:15:21;;;;;;;32.42;22.65;;;18.60;99.90;;;;;;5112046;27;20039;-85
2023/05/09 09:17:49;;;;;;;30.00;21.52;;;18.80;99.90;;;;;;5112328;27;20047;-87
2023/05/09 09:20:17;;;;;;;28.70;20.67;;;19.00;99.90;;;;;;5112465;27;20489;-86
2023/05/09 09:22:46;;;;;;;28.52;21.08;;;19.10;99.90;;;;;;5110800;27;20047;-87
2023/05/09 09:25:12;;;;;;;31.45;21.40;;;19.30;99.90;;;;;;5111490;27;20092;-85
2023/05/09 09:27:38;;;;;;;29.20;21.42;;;19.00;99.90;;;;;;5111309;27;20408;-82
2023/05/09 09:30:08;;;;;;;30.58;20.90;;;18.90;99.90;;;;;;5111664;27;20039;-82
2023/05/09 09:32:34;;;;;;;28.02;20.77;;;18.70;99.90;;;;;;5110432;27;20047;-83
2023/05/09 09:35:05;;;;;;;26.80;19.67;;;18.50;99.90;;;;;;5094791;27;20047;-83
2023/05/09 09:37:33;;;;;;;28.30;20.45;;;18.40;99.90;;;;;;5129481;27;20047;-83
2023/05/09 09:39:59;;;;;;;25.80;20.58;;;18.40;99.90;;;;;;5129813;27;20484;-83
2023/05/09 09:42:25;;;;;;;27.17;19.65;;;18.50;99.90;;;;;;5093649;27;20061;-83
2023/05/09 09:44:56;;;;;;;27.98;20.27;;;18.90;99.90;;;;;;5110470;27;20055;-83
2023/05/09 09:47:30;;;;;;;26.50;20.58;;;19.00;99.90;;;;;;5110874;27;20051;-83
2023/05/09 09:49:56;;;;;;;31.75;21.77;;;19.00;99.90;;;;;;5094560;27;20151;-83
2023/05/09 09:52:26;;;;;;;33.60;20.85;;;19.10;99.90;;;;;;5094019;27;20126;-83
2023/05/09 09:54:55;;;;;;;36.58;23.85;;;19.40;99.90;;;;;;5092858;28;20051;-85
2023/05/09 09:57:38;;;;;;;29.45;22.17;;;19.30;99.90;;;;;;5081455;27;20043;-86
2023/05/09 10:00:05;;;;;;;27.70;21.25;;;19.30;99.90;;;;;;5109309;27;20091;-85
2023/05/09 10:02:31;;;;;;;27.48;20.90;;;19.60;99.90;;;;;;5109657;27;20043;-85
2023/05/09 10:05:05;;;;;;;29.10;20.73;;;19.80;99.90;;;;;;5109966;27;20074;-87
2023/05/09 10:07:34;;;;;;;25.20;18.98;;;19.90;99.90;;;;;;5125720;27;20042;-85
2023/05/09 10:10:04;;;;;;;27.88;20.20;;;20.00;99.90;;;;;;5110003;27;20044;-85
2023/05/09 10:12:33;;;;;;;23.00;18.63;;;20.10;99.90;;;;;;5091138;28;20044;-85
2023/05/09 10:15:00;;;;;;;21.77;17.80;;;20.10;99.90;;;;;;5090790;28;20100;-86
2023/05/09 10:17:29;;;;;;;21.88;17.40;;;20.20;99.90;;;;;;5099994;27;20117;-86
2023/05/09 10:19:56;;;;;;;23.90;16.88;;;20.30;99.90;;;;;;5092144;27;20350;-84
2023/05/09 10:22:23;;;;;;;21.30;17.27;;;20.40;99.90;;;;;;5110558;27;20043;-84
2023/05/09 10:25:02;;;;;;;23.38;18.38;;;20.80;99.90;;;;;;5127756;27;20110;-85
2023/05/09 10:27:31;;;;;;;25.33;18.90;;;20.50;99.90;;;;;;5091650;27;20100;-84
2023/05/09 10:30:59;;;;;;;22.60;18.17;;;20.60;99.90;;;;;;5108503;27;20729;-84
2023/05/09 10:33:33;;;;;;;23.73;17.70;;;20.70;99.90;;;;;;5124020;27;20050;-84
2023/05/09 10:36:02;;;;;;;24.95;16.83;;;20.90;99.90;;;;;;5129281;27;20051;-85
2023/05/09 10:38:29;;;;;;;18.42;15.45;;;21.30;99.90;;;;;;5110453;27;20054;-85
2023/05/09 10:40:55;;;;;;;19.95;15.93;;;21.00;99.90;;;;;;5110771;27;20051;-84
2023/05/09 10:43:22;;;;;;;20.63;15.50;;;21.00;99.90;;;;;;5109403;27;20042;-84
2023/05/09 10:45:48;;;;;;;20.70;16.25;;;21.00;99.90;;;;;;5110360;27;20544;-83
2023/05/09 10:48:15;;;;;;;20.95;17.17;;;21.00;99.90;;;;;;5110404;27;20073;-83
2023/05/09 10:50:42;;;;;;;18.60;16.52;;;21.00;99.90;;;;;;5093665;27;20042;-84
2023/05/09 10:53:16;;;;;;;21.42;17.55;;;20.90;99.90;;;;;;5110781;27;20066;-84
2023/05/09 10:55:57;;;;;;;23.25;17.73;;;20.90;99.90;;;;;;5127920;27;20396;-84
2023/05/09 10:58:29;;;;;;;22.23;17.50;;;21.00;99.90;;;;;;5089828;28;20443;-84
2023/05/09 11:00:57;;;;;;;21.40;17.17;;;20.80;99.90;;;;;;5108419;28;20106;-84
2023/05/09 11:03:25;;;;;;;21.17;17.10;;;20.80;99.90;;;;;;5090360;28;20047;-83
2023/05/09 11:05:56;;;;;;;25.45;17.77;;;20.70;99.90;;;;;;5108801;28;20035;-82
2023/05/09 11:08:28;;;;;;;19.30;16.27;;;20.70;99.90;;;;;;5089509;28;20062;-82
2023/05/09 11:10:54;;;;;;;;;;;20.80;99.90;;;;;;5124083;27;20442;-82
2023/05/09 11:13:22;;;;;;;18.88;15.93;;;20.60;99.90;;;;;;5110740;27;19919;-82
2023/05/09 11:16:11;;;;;;;17.02;14.10;;;21.10;99.90;;;;;;5129365;27;20066;-82
2023/05/09 11:18:51;;;;;;;14.52;12.82;;;21.20;99.90;;;;;;5127545;27;20043;-82
2023/05/09 11:21:19;;;;;;;16.63;12.73;;;21.20;99.90;;;;;;5079552;27;20442;-81
2023/05/09 11:23:47;;;;;;;14.90;12.80;;;21.20;99.90;;;;;;5092560;28;20057;-82
2023/05/09 11:26:14;;;;;;;14.85;12.75;;;21.40;99.90;;;;;;5128035;28;20046;-82
2023/05/09 11:28:40;;;;;;;14.25;12.45;;;21.20;99.90;;;;;;5109963;28;20082;-82
2023/05/09 11:31:17;;;;;;;13.52;12.02;;;21.10;99.90;;;;;;5109885;27;20089;-82
2023/05/09 11:33:45;;;;;;;13.50;11.07;;;21.00;99.90;;;;;;5110308;28;20078;-82
2023/05/09 11:36:28;;;;;;;13.13;11.30;;;21.00;99.90;;;;;;5110279;28;20043;-82
2023/05/09 11:39:07;;;;;;;13.52;10.30;;;21.10;99.90;;;;;;5104161;28;20047;-82
2023/05/09 11:41:44;;;;;;;13.18;10.82;;;21.20;99.90;;;;;;5107699;28;20138;-82
2023/05/09 11:44:20;;;;;;;12.88;10.93;;;21.30;99.90;;;;;;5127988;28;20037;-81
2023/05/09 11:46:47;;;;;;;13.23;10.60;;;21.30;99.90;;;;;;5107929;28;20098;-82
2023/05/09 11:49:14;;;;;;;11.45;9.82;;;21.20;99.90;;;;;;5111344;27;20495;-82
2023/05/09 11:51:40;;;;;;;10.95;9.13;;;21.20;99.90;;;;;;5132335;27;20047;-82
2023/05/09 11:54:07;;;;;;;9.80;8.82;;;21.30;99.90;;;;;;5096329;27;20047;-82
2023/05/09 11:56:38;;;;;;;11.95;8.45;;;21.30;99.90;;;;;;5132468;27;20046;-83
2023/05/09 11:59:05;;;;;;;9.70;8.38;;;21.30;99.90;;;;;;5131781;27;20065;-82
2023/05/09 12:01:31;;;;;;;8.57;7.35;;;21.30;99.90;;;;;;5095879;27;20573;-82
2023/05/09 12:03:57;;;;;;;8.60;7.70;;;21.30;99.90;;;;;;5113956;27;20122;-82
2023/05/09 12:06:24;;;;;;;10.13;8.50;;;21.40;99.90;;;;;;5113679;27;20075;-82
2023/05/09 12:08:51;;;;;;;11.85;8.40;;;21.30;99.90;;;;;;5130313;27;20131;-82
2023/05/09 12:11:17;;;;;;;9.07;8.20;;;21.40;99.90;;;;;;5110633;27;20538;-83
2023/05/09 12:13:54;;;;;;;10.57;8.15;;;21.50;99.90;;;;;;5129702;27;20039;-83
2023/05/09 12:16:20;;;;;;;8.65;7.70;;;21.40;99.90;;;;;;5130538;27;20035;-82
2023/05/09 12:18:51;;;;;;;8.85;7.78;;;21.40;99.90;;;;;;5108336;27;20047;-83
2023/05/09 12:21:18;;;;;;;9.13;8.13;;;21.30;99.90;;;;;;5106912;27;20051;-82
2023/05/09 12:23:45;;;;;;;9.43;8.43;;;21.30;99.90;;;;;;5109119;27;20040;-82
2023/05/09 12:26:11;;;;;;;9.75;8.75;;;21.40;99.90;;;;;;5113289;27;20533;-82
2023/05/09 12:28:38;;;;;;;10.52;8.38;;;21.40;99.90;;;;;;5131351;27;20041;-82
2023/05/09 12:31:05;;;;;;;10.98;8.02;;;21.40;99.90;;;;;;5112564;27;20148;-82